createdAt,value
2023-04-02T00:00:29.808Z,100109.20
2023-04-02T00:02:23.097Z,100113.00
2023-04-02T00:03:59.591Z,100112.60
2023-04-02T00:05:51.004Z,100119.60
2023-04-02T00:07:33.437Z,100121.60
2023-04-02T00:09:31.148Z,100130.00
2023-04-02T00:11:03.115Z,100126.20
2023-04-02T00:12:34.990Z,100129.40
2023-04-02T00:14:26.575Z,100137.00
2023-04-02T00:16:00.700Z,100135.80
2023-04-02T00:17:32.603Z,100139.20
2023-04-02T00:19:12.737Z,100145.20
2023-04-02T00:21:08.440Z,100144.20
2023-04-02T00:22:44.606Z,100150.80
2023-04-02T00:24:22.043Z,100151.00
2023-04-02T00:25:54.000Z,100159.00
2023-04-02T00:27:26.228Z,100162.40
2023-04-02T00:29:01.815Z,100164.20
2023-04-02T00:30:33.749Z,100166.00
2023-04-02T00:32:05.784Z,100169.00
2023-04-02T00:33:38.499Z,100174.80
2023-04-02T00:35:27.197Z,100175.40
2023-04-02T00:37:00.116Z,100179.40
2023-04-02T00:38:35.591Z,100185.00
2023-04-02T00:40:20.036Z,100188.60
2023-04-02T00:41:58.863Z,100195.80
2023-04-02T00:43:39.336Z,100195.00
2023-04-02T00:45:31.508Z,100200.80
2023-04-02T00:47:15.755Z,100204.20
2023-04-02T00:48:59.908Z,100213.00
2023-04-02T00:50:41.508Z,100206.80
2023-04-02T00:52:18.273Z,100220.60
2023-04-02T00:53:55.948Z,100220.00
2023-04-02T00:55:40.459Z,100223.00
2023-04-02T00:57:18.437Z,100227.40
2023-04-02T00:58:55.293Z,100228.20
2023-04-02T01:00:35.540Z,100230.20
2023-04-02T01:02:17.547Z,100237.60
2023-04-02T01:03:58.499Z,100237.00
2023-04-02T01:05:35.739Z,100242.40
2023-04-02T01:07:12.252Z,100237.20
2023-04-02T01:08:52.750Z,100243.40
2023-04-02T01:10:42.854Z,100244.20
2023-04-02T01:12:43.697Z,100252.40
2023-04-02T01:15:06.407Z,100255.40
2023-04-02T01:17:26.581Z,100262.20
2023-04-02T01:19:32.230Z,100258.40
2023-04-02T01:21:22.187Z,100261.80
2023-04-02T01:23:09.289Z,100270.00
2023-04-02T01:24:44.202Z,100269.20
2023-04-02T01:26:44.966Z,100267.20
2023-04-02T01:28:29.511Z,100268.80
2023-04-02T01:30:05.178Z,100270.60
2023-04-02T01:31:39.066Z,100281.40
2023-04-02T01:33:12.613Z,100284.20
2023-04-02T01:34:49.294Z,100281.40
2023-04-02T01:36:27.343Z,100284.80
2023-04-02T01:38:19.274Z,100290.60
2023-04-02T01:40:23.373Z,100293.60
2023-04-02T01:42:24.795Z,100295.00
2023-04-02T01:44:12.282Z,100298.60
2023-04-02T01:45:44.777Z,100301.60
2023-04-02T01:47:24.537Z,100304.20
2023-04-02T01:49:02.467Z,100303.40
2023-04-02T01:50:39.046Z,100311.80
2023-04-02T01:52:26.511Z,100313.60
2023-04-02T01:54:03.577Z,100319.40
2023-04-02T01:56:01.858Z,100328.80
2023-04-02T01:57:34.467Z,100326.40
2023-04-02T01:59:08.582Z,100329.20
2023-04-02T02:00:53.740Z,100333.00
2023-04-02T02:02:26.715Z,100331.60
2023-04-02T02:03:59.054Z,100338.00
2023-04-02T02:05:31.408Z,100344.80
2023-04-02T02:07:05.304Z,100347.20
2023-04-02T02:08:47.281Z,100346.20
2023-04-02T02:10:44.344Z,100350.20
2023-04-02T02:12:16.859Z,100351.00
2023-04-02T02:13:56.486Z,100354.40
2023-04-02T02:15:31.896Z,100352.60
2023-04-02T02:17:17.602Z,100361.80
2023-04-02T02:18:56.297Z,100363.00
2023-04-02T02:20:29.405Z,100366.60
2023-04-02T02:22:14.126Z,100370.60
2023-04-02T02:23:45.998Z,100371.00
2023-04-02T02:25:24.256Z,100371.60
2023-04-02T02:27:21.616Z,100375.20
2023-04-02T02:28:58.336Z,100381.00
2023-04-02T02:30:49.316Z,100384.40
2023-04-02T02:32:27.363Z,100391.60
2023-04-02T02:34:12.960Z,100392.80
2023-04-02T02:36:10.807Z,100393.80
2023-04-02T02:37:57.608Z,100403.00
2023-04-02T02:39:41.579Z,100408.20
2023-04-02T02:41:33.560Z,100408.60
2023-04-02T02:43:12.122Z,100415.40
2023-04-02T02:44:49.197Z,100411.60
2023-04-02T02:46:26.505Z,100417.20
2023-04-02T02:48:02.985Z,100421.80
2023-04-02T02:49:44.460Z,100425.20
2023-04-02T02:52:01.862Z,100429.40
2023-04-02T02:53:50.741Z,100429.40
2023-04-02T02:55:37.356Z,100437.00
2023-04-02T02:57:23.607Z,100436.60
2023-04-02T02:58:56.085Z,100440.60
2023-04-02T03:00:35.805Z,100442.20
2023-04-02T03:02:09.529Z,100442.60
2023-04-02T03:03:41.699Z,100449.60
2023-04-02T03:05:22.047Z,100449.00
2023-04-02T03:06:57.846Z,100457.60
2023-04-02T03:08:53.394Z,100463.00
2023-04-02T03:10:48.515Z,100465.80
2023-04-02T03:12:49.299Z,100470.60
2023-04-02T03:15:11.159Z,100476.60
2023-04-02T03:16:50.853Z,100480.20
2023-04-02T03:18:30.739Z,100477.40
2023-04-02T03:20:40.669Z,100484.20
2023-04-02T03:22:41.567Z,100484.20
2023-04-02T03:24:32.877Z,100488.20
2023-04-02T03:26:23.219Z,100496.00
2023-04-02T03:28:04.892Z,100501.80
2023-04-02T03:29:49.635Z,100508.80
2023-04-02T03:31:44.136Z,100514.40
2023-04-02T03:33:31.852Z,100512.60
2023-04-02T03:35:24.291Z,100512.20
2023-04-02T03:37:13.917Z,100520.20
2023-04-02T03:39:01.509Z,100526.00
2023-04-02T03:40:45.072Z,100529.20
2023-04-02T03:42:26.159Z,100534.40
2023-04-02T03:44:07.819Z,100539.80
2023-04-02T03:45:47.498Z,100545.00
2023-04-02T03:48:05.968Z,100543.00
2023-04-02T03:49:48.144Z,100551.20
2023-04-02T03:51:23.335Z,100557.60
2023-04-02T03:52:59.107Z,100558.40
2023-04-02T03:54:32.231Z,100560.20
2023-04-02T03:56:06.728Z,100562.60
2023-04-02T03:57:58.436Z,100568.40
2023-04-02T04:00:14.440Z,100573.00
2023-04-02T04:01:59.495Z,100580.00
2023-04-02T04:03:45.826Z,100574.80
2023-04-02T04:05:37.493Z,100590.40
2023-04-02T04:07:32.933Z,100583.20
2023-04-02T04:09:18.538Z,100593.80
2023-04-02T04:10:58.839Z,100595.00
2023-04-02T04:12:47.052Z,100599.00
2023-04-02T04:14:37.466Z,100601.40
2023-04-02T04:16:19.283Z,100610.20
2023-04-02T04:18:35.138Z,100608.20
2023-04-02T04:20:22.028Z,100614.00
2023-04-02T04:22:33.854Z,100614.20
2023-04-02T04:24:24.231Z,100616.20
2023-04-02T04:26:09.700Z,100625.00
2023-04-02T04:27:52.957Z,100628.40
2023-04-02T04:29:54.219Z,100626.40
2023-04-02T04:31:40.712Z,100631.20
2023-04-02T04:33:25.182Z,100634.40
2023-04-02T04:35:15.827Z,100645.00
2023-04-02T04:36:55.860Z,100647.40
2023-04-02T04:38:40.836Z,100647.80
2023-04-02T04:40:33.099Z,100652.80
2023-04-02T04:42:07.861Z,100655.40
2023-04-02T04:44:03.663Z,100663.40
2023-04-02T04:45:35.843Z,100662.00
2023-04-02T04:47:18.349Z,100668.00
2023-04-02T04:48:58.102Z,100667.60
2023-04-02T04:50:46.423Z,100677.80
2023-04-02T04:52:39.533Z,100677.80
2023-04-02T04:54:16.379Z,100680.00
2023-04-02T04:55:54.426Z,100688.60
2023-04-02T04:57:35.925Z,100689.60
2023-04-02T04:59:26.259Z,100696.00
2023-04-02T05:01:12.506Z,100713.40
2023-04-02T05:03:13.571Z,100711.20
2023-04-02T05:04:51.730Z,100715.80
2023-04-02T05:06:42.567Z,100714.80
2023-04-02T05:08:27.251Z,100724.00
2023-04-02T05:10:01.801Z,100726.20
2023-04-02T05:12:00.229Z,100731.20
2023-04-02T05:13:40.019Z,100735.40
2023-04-02T05:15:44.693Z,100735.80
2023-04-02T05:17:34.205Z,100745.40
2023-04-02T05:19:32.748Z,100751.20
2023-04-02T05:21:26.461Z,100753.40
2023-04-02T05:23:11.031Z,100758.20
2023-04-02T05:25:02.518Z,100762.00
2023-04-02T05:26:50.100Z,100766.80
2023-04-02T05:28:46.357Z,100765.00
2023-04-02T05:30:24.132Z,100771.20
2023-04-02T05:32:31.877Z,100771.00
2023-04-02T05:34:04.321Z,100777.60
2023-04-02T05:35:44.201Z,100783.40
2023-04-02T05:37:24.565Z,100784.00
2023-04-02T05:38:59.844Z,100782.20
2023-04-02T05:42:37.885Z,100786.00
2023-04-02T05:44:30.244Z,100794.80
2023-04-02T05:46:17.098Z,100802.80
2023-04-02T05:48:00.182Z,100801.00
2023-04-02T05:49:47.321Z,100801.20
2023-04-02T05:51:30.795Z,100811.40
2023-04-02T05:53:36.298Z,100814.80
2023-04-02T05:55:18.050Z,100819.80
2023-04-02T05:57:04.029Z,100822.00
2023-04-02T05:59:00.912Z,100821.20
2023-04-02T06:00:38.015Z,100828.60
2023-04-02T06:02:36.503Z,100831.60
2023-04-02T06:04:56.232Z,100842.80
2023-04-02T06:06:42.077Z,100841.60
2023-04-02T06:08:26.518Z,100854.00
2023-04-02T06:10:27.196Z,100853.80
2023-04-02T06:12:17.653Z,100863.40
2023-04-02T06:13:49.996Z,100862.00
2023-04-02T06:15:24.861Z,100868.80
2023-04-02T06:17:01.402Z,100871.80
2023-04-02T06:18:36.897Z,100870.80
2023-04-02T06:20:17.731Z,100876.20
2023-04-02T06:21:58.260Z,100877.60
2023-04-02T06:23:50.565Z,100885.60
2023-04-02T06:25:34.351Z,100886.00
2023-04-02T06:27:13.063Z,100889.40
2023-04-02T06:29:12.295Z,100893.40
2023-04-02T06:30:44.884Z,100900.60
2023-04-02T06:32:21.086Z,100905.60
2023-04-02T06:33:55.221Z,100909.00
2023-04-02T06:35:28.892Z,100913.00
2023-04-02T06:37:36.145Z,100913.60
2023-04-02T06:39:25.457Z,100921.20
2023-04-02T06:41:13.445Z,100922.20
2023-04-02T06:43:20.973Z,100927.80
2023-04-02T06:45:40.013Z,100933.60
2023-04-02T06:47:34.350Z,100934.00
2023-04-02T06:49:57.051Z,100936.20
2023-04-02T06:51:34.377Z,100940.00
2023-04-02T06:53:17.822Z,100943.40
2023-04-02T06:54:50.041Z,100943.60
2023-04-02T06:56:48.406Z,100942.80
2023-04-02T06:58:41.212Z,100958.20
2023-04-02T07:00:28.890Z,100957.60
2023-04-02T07:02:15.236Z,100963.00
2023-04-02T07:03:47.852Z,100965.40
2023-04-02T07:05:26.016Z,100969.60
2023-04-02T07:06:59.901Z,100973.60
2023-04-02T07:08:35.454Z,100974.60
2023-04-02T07:10:09.353Z,100980.00
2023-04-02T07:11:41.573Z,100982.00
2023-04-02T07:13:17.547Z,100985.00
2023-04-02T07:14:49.622Z,100992.20
2023-04-02T07:16:26.342Z,100992.00
2023-04-02T07:18:00.225Z,100998.80
2023-04-02T07:19:32.971Z,100998.20
2023-04-02T07:21:05.571Z,101002.60
2023-04-02T07:22:37.425Z,101009.00
2023-04-02T07:24:09.361Z,101012.20
2023-04-02T07:25:41.314Z,101021.20
2023-04-02T07:27:14.792Z,101017.40
2023-04-02T07:28:46.700Z,101022.00
2023-04-02T07:30:20.156Z,101026.20
2023-04-02T07:31:53.959Z,101024.20
2023-04-02T07:33:29.710Z,101032.60
2023-04-02T07:35:01.549Z,101032.80
2023-04-02T07:36:33.571Z,101033.60
2023-04-02T07:38:05.634Z,101038.00
2023-04-02T07:39:40.181Z,101039.60
2023-04-02T07:41:14.060Z,101044.00
2023-04-02T07:42:46.721Z,101055.60
2023-04-02T07:44:18.603Z,101055.40
2023-04-02T07:45:53.458Z,101060.60
2023-04-02T07:47:25.530Z,101057.40
2023-04-02T07:48:57.470Z,101060.40
2023-04-02T07:50:29.425Z,101072.40
2023-04-02T07:52:01.512Z,101071.80
2023-04-02T07:53:38.777Z,101074.00
2023-04-02T07:55:13.529Z,101071.00
2023-04-02T07:56:46.958Z,101077.40
2023-04-02T07:58:19.173Z,101081.80
2023-04-02T07:59:51.995Z,101081.80
2023-04-02T08:01:28.034Z,101084.60
2023-04-02T08:03:00.233Z,101084.80
2023-04-02T08:04:32.464Z,101088.40
2023-04-02T08:06:07.496Z,101092.60
2023-04-02T08:07:40.004Z,101092.80
2023-04-02T08:09:12.450Z,101091.60
2023-04-02T08:10:44.472Z,101097.40
2023-04-02T08:12:17.870Z,101101.60
2023-04-02T08:13:52.255Z,101108.60
2023-04-02T08:15:24.484Z,101107.00
2023-04-02T08:16:57.079Z,101109.00
2023-04-02T08:18:31.502Z,101120.40
2023-04-02T08:20:06.701Z,101121.40
2023-04-02T08:21:38.846Z,101127.40
2023-04-02T08:23:18.226Z,101137.80
2023-04-02T08:24:52.968Z,101135.60
2023-04-02T08:26:25.047Z,101144.60
2023-04-02T08:27:57.915Z,101144.40
2023-04-02T08:29:33.695Z,101146.80
2023-04-02T08:31:09.191Z,101142.80
2023-04-02T08:32:41.520Z,101145.80
2023-04-02T08:34:13.840Z,101154.20
2023-04-02T08:35:48.936Z,101157.60
2023-04-02T08:37:21.233Z,101156.20
2023-04-02T08:38:54.855Z,101158.40
2023-04-02T08:40:35.822Z,101155.00
2023-04-02T08:42:35.902Z,101155.60
2023-04-02T08:44:17.340Z,101162.20
2023-04-02T08:46:27.097Z,101168.00
2023-04-02T08:48:03.531Z,101159.40
2023-04-02T08:49:53.526Z,101172.80
2023-04-02T08:51:33.222Z,101178.00
2023-04-02T08:53:13.635Z,101178.00
2023-04-02T08:54:45.538Z,101179.00
2023-04-02T08:56:30.898Z,101181.60
2023-04-02T08:58:43.128Z,101195.00
2023-04-02T09:00:15.746Z,101194.60
2023-04-02T09:02:22.050Z,101196.80
2023-04-02T09:03:59.886Z,101199.20
2023-04-02T09:05:43.562Z,101207.00
2023-04-02T09:07:20.683Z,101212.40
2023-04-02T09:08:56.929Z,101213.80
2023-04-02T09:11:10.648Z,101218.40
2023-04-02T09:12:49.036Z,101221.80
2023-04-02T09:14:54.274Z,101222.20
2023-04-02T09:17:00.852Z,101229.00
2023-04-02T09:18:34.355Z,101230.80
2023-04-02T09:20:19.312Z,101228.20
2023-04-02T09:22:23.118Z,101229.80
2023-04-02T09:23:55.963Z,101241.40
2023-04-02T09:25:32.336Z,101244.40
2023-04-02T09:27:18.581Z,101244.80
2023-04-02T09:28:54.829Z,101246.00
2023-04-02T09:30:32.069Z,101253.00
2023-04-02T09:32:25.749Z,101253.20
2023-04-02T09:33:57.720Z,101253.80
2023-04-02T09:35:38.846Z,101253.60
2023-04-02T09:37:25.457Z,101266.40
2023-04-02T09:39:21.110Z,101261.60
2023-04-02T09:41:06.580Z,101266.00
2023-04-02T09:42:39.194Z,101264.80
2023-04-02T09:44:29.043Z,101273.80
2023-04-02T09:46:02.447Z,101278.40
2023-04-02T09:47:35.200Z,101280.80
2023-04-02T09:49:17.974Z,101281.00
2023-04-02T09:50:50.117Z,101288.00
2023-04-02T09:52:31.089Z,101286.60
2023-04-02T09:54:05.935Z,101297.60
2023-04-02T09:55:38.290Z,101292.20
2023-04-02T09:57:31.948Z,101298.40
2023-04-02T09:59:22.598Z,101297.80
2023-04-02T10:00:54.535Z,101301.00
2023-04-02T10:02:30.255Z,101306.20
2023-04-02T10:04:06.708Z,101307.40
2023-04-02T10:05:41.056Z,101316.40
2023-04-02T10:07:39.272Z,101315.20
2023-04-02T10:09:32.720Z,101314.20
2023-04-02T10:11:15.741Z,101319.80
2023-04-02T10:13:18.158Z,101324.40
2023-04-02T10:14:53.104Z,101324.20
2023-04-02T10:16:42.967Z,101333.80
2023-04-02T10:18:35.850Z,101331.40
2023-04-02T10:20:23.264Z,101337.60
2023-04-02T10:21:57.155Z,101337.80
2023-04-02T10:23:31.868Z,101351.80
2023-04-02T10:25:18.139Z,101352.00
2023-04-02T10:27:10.005Z,101357.80
2023-04-02T10:28:46.329Z,101361.20
2023-04-02T10:30:52.764Z,101363.80
2023-04-02T10:32:32.591Z,101369.20
2023-04-02T10:34:23.400Z,101374.80
2023-04-02T10:36:30.739Z,101373.00
2023-04-02T10:38:34.008Z,101376.40
2023-04-02T10:40:29.495Z,101382.60
2023-04-02T10:42:32.664Z,101383.20
2023-04-02T10:44:21.892Z,101388.20
2023-04-02T10:46:06.448Z,101385.00
2023-04-02T10:47:57.405Z,101391.40
2023-04-02T10:49:43.185Z,101389.40
2023-04-02T10:51:38.816Z,101393.00
2023-04-02T10:53:21.411Z,101398.80
2023-04-02T10:54:57.791Z,101399.20
2023-04-02T10:56:44.076Z,101396.40
2023-04-02T10:58:30.021Z,101402.20
2023-04-02T11:00:19.760Z,101402.40
2023-04-02T11:01:57.349Z,101403.20
2023-04-02T11:03:58.033Z,101406.80
2023-04-02T11:05:55.567Z,101404.60
2023-04-02T11:07:33.198Z,101408.80
2023-04-02T11:09:16.296Z,101415.40
2023-04-02T11:11:03.938Z,101415.00
2023-04-02T11:12:55.501Z,101417.60
2023-04-02T11:14:30.693Z,101421.60
2023-04-02T11:16:03.942Z,101429.60
2023-04-02T11:17:36.778Z,101426.60
2023-04-02T11:19:14.737Z,101430.80
2023-04-02T11:20:57.457Z,101439.60
2023-04-02T11:22:29.992Z,101438.40
2023-04-02T11:24:05.553Z,101445.20
2023-04-02T11:25:37.637Z,101444.60
2023-04-02T11:27:31.530Z,101449.80
2023-04-02T11:29:30.166Z,101446.60
2023-04-02T11:31:02.702Z,101455.60
2023-04-02T11:32:42.838Z,101454.60
2023-04-02T11:34:41.547Z,101457.80
2023-04-02T11:36:50.300Z,101460.00
2023-04-02T11:38:24.710Z,101464.20
2023-04-02T11:40:00.994Z,101471.40
2023-04-02T11:42:02.833Z,101470.00
2023-04-02T11:43:34.786Z,101471.00
2023-04-02T11:45:30.204Z,101472.20
2023-04-02T11:47:19.649Z,101474.60
2023-04-02T11:48:54.711Z,101476.40
2023-04-02T11:50:36.235Z,101482.20
2023-04-02T11:52:28.263Z,101483.60
2023-04-02T11:54:02.666Z,101483.80
2023-04-02T11:55:39.434Z,101485.40
2023-04-02T11:57:39.795Z,101488.60
2023-04-02T11:59:41.085Z,101491.60
2023-04-02T12:02:03.426Z,101494.20
2023-04-02T12:04:12.931Z,101495.40
2023-04-02T12:06:08.774Z,101501.20
2023-04-02T12:07:57.607Z,101497.40
2023-04-02T12:09:53.877Z,101503.80
2023-04-02T12:11:42.032Z,101496.80
2023-04-02T12:18:25.365Z,101504.60
2023-04-02T12:20:10.602Z,101510.40
2023-04-02T12:21:49.874Z,101516.00
2023-04-02T12:23:36.951Z,101518.60
2023-04-02T12:25:40.860Z,101521.40
2023-04-02T12:27:27.810Z,101519.20
2023-04-02T12:29:27.132Z,101521.80
2023-04-02T12:31:08.599Z,101524.60
2023-04-02T12:32:42.939Z,101527.80
2023-04-02T12:34:21.801Z,101522.20
2023-04-02T12:36:06.847Z,101520.80
2023-04-02T12:37:39.609Z,101529.20
2023-04-02T12:39:17.501Z,101528.60
2023-04-02T12:41:00.242Z,101526.00
2023-04-02T12:42:37.715Z,101529.40
2023-04-02T12:44:20.631Z,101528.80
2023-04-02T12:46:03.306Z,101539.20
2023-04-02T12:47:36.524Z,101535.80
2023-04-02T12:49:38.127Z,101531.00
2023-04-02T12:51:11.310Z,101531.40
2023-04-02T12:52:51.406Z,101532.80
2023-04-02T12:54:24.013Z,101539.80
2023-04-02T12:55:56.793Z,101542.60
2023-04-02T12:57:31.715Z,101542.80
2023-04-02T12:59:03.803Z,101543.60
2023-04-02T13:00:37.337Z,101542.60
2023-04-02T13:02:25.769Z,101542.20
2023-04-02T13:04:12.180Z,101546.80
2023-04-02T13:05:57.642Z,101542.60
2023-04-02T13:07:33.938Z,101543.40
2023-04-02T13:09:34.409Z,101547.00
2023-04-02T13:11:07.045Z,101549.80
2023-04-02T13:12:41.374Z,101551.60
2023-04-02T13:14:21.308Z,101556.40
2023-04-02T13:16:10.471Z,101548.80
2023-04-02T13:18:01.489Z,101548.20
2023-04-02T13:19:34.198Z,101554.80
2023-04-02T13:21:28.110Z,101552.00
2023-04-02T13:23:25.237Z,101544.40
2023-04-02T13:24:57.044Z,101541.60
2023-04-02T13:26:30.033Z,101545.60
2023-04-02T13:28:02.757Z,101556.60
2023-04-02T13:29:36.639Z,101549.60
2023-04-02T13:31:17.459Z,101551.60
2023-04-02T13:32:49.531Z,101550.60
2023-04-02T13:34:21.918Z,101553.60
2023-04-02T13:35:53.989Z,101559.60
2023-04-02T13:37:26.270Z,101558.40
2023-04-02T13:38:58.189Z,101549.20
2023-04-02T13:40:31.264Z,101559.60
2023-04-02T13:42:06.601Z,101560.80
2023-04-02T13:43:38.539Z,101564.20
2023-04-02T13:45:30.149Z,101564.60
2023-04-02T13:47:02.042Z,101564.20
2023-04-02T13:48:34.633Z,101563.40
2023-04-02T13:50:09.034Z,101567.40
2023-04-02T13:51:49.050Z,101569.80
2023-04-02T13:53:33.039Z,101568.00
2023-04-02T13:55:06.099Z,101569.20
2023-04-02T13:56:38.676Z,101568.60
2023-04-02T13:58:11.623Z,101575.00
2023-04-02T13:59:43.427Z,101569.20
2023-04-02T14:01:15.343Z,101575.00
2023-04-02T14:02:56.109Z,101581.00
2023-04-02T14:04:35.468Z,101584.40
2023-04-02T14:06:27.080Z,101588.40
2023-04-02T14:08:38.295Z,101591.60
2023-04-02T14:10:40.937Z,101594.40
2023-04-02T14:12:38.175Z,101598.00
2023-04-02T14:14:30.169Z,101596.40
2023-04-02T14:16:50.662Z,101588.60
2023-04-02T14:19:00.731Z,101595.60
2023-04-02T14:20:56.593Z,101595.80
2023-04-02T14:22:57.186Z,101586.40
2023-04-02T14:25:18.763Z,101601.40
2023-04-02T14:27:42.131Z,101606.80
2023-04-02T14:29:36.482Z,101607.20
2023-04-02T14:31:34.121Z,101604.60
2023-04-02T14:33:32.261Z,101606.60
2023-04-02T14:35:21.896Z,101619.20
2023-04-02T14:37:14.221Z,101615.20
2023-04-02T14:39:05.328Z,101632.80
2023-04-02T14:40:49.561Z,101618.20
2023-04-02T14:42:36.645Z,101623.00
2023-04-02T14:44:11.486Z,101619.00
2023-04-02T14:46:03.013Z,101623.00
2023-04-02T14:47:45.339Z,101612.80
2023-04-02T14:49:31.728Z,101611.60
2023-04-02T14:51:22.252Z,101614.40
2023-04-02T14:53:01.715Z,101616.20
2023-04-02T14:54:55.284Z,101633.20
2023-04-02T14:56:29.122Z,101635.60
2023-04-02T14:58:08.914Z,101631.40
2023-04-02T15:00:26.031Z,101639.60
2023-04-02T15:02:16.746Z,101635.20
2023-04-02T15:03:58.481Z,101630.00
2023-04-02T15:06:11.826Z,101636.60
2023-04-02T15:07:56.848Z,101637.60
2023-04-02T15:09:37.210Z,101645.00
2023-04-02T15:11:31.864Z,101641.80
2023-04-02T15:13:16.303Z,101656.20
2023-04-02T15:14:56.906Z,101638.00
2023-04-02T15:16:28.765Z,101632.60
2023-04-02T15:18:02.533Z,101639.00
2023-04-02T15:19:34.375Z,101635.60
2023-04-02T15:21:29.579Z,101639.20
2023-04-02T15:23:19.700Z,101653.60
2023-04-02T15:25:24.894Z,101663.00
2023-04-02T15:27:39.656Z,101661.40
2023-04-02T15:29:44.285Z,101657.80
2023-04-02T15:31:17.224Z,101656.40
2023-04-02T15:32:51.185Z,101653.60
2023-04-02T15:34:35.908Z,101652.40
2023-04-02T15:36:47.281Z,101666.20
2023-04-02T15:38:45.962Z,101656.40
2023-04-02T15:40:41.428Z,101657.60
2023-04-02T15:42:27.772Z,101660.80
2023-04-02T15:44:06.416Z,101667.20
2023-04-02T15:46:04.060Z,101681.00
2023-04-02T15:47:54.548Z,101686.00
2023-04-02T15:49:51.084Z,101687.20
2023-04-02T15:52:10.739Z,101691.20
2023-04-02T15:54:17.489Z,101693.60
2023-04-02T15:56:26.684Z,101699.20
2023-04-02T15:58:20.632Z,101698.80
2023-04-02T16:00:02.713Z,101680.00
2023-04-02T16:02:40.006Z,101684.20
2023-04-02T16:04:56.102Z,101700.80
2023-04-02T16:06:50.096Z,101704.60
2023-04-02T16:09:18.686Z,101711.80
2023-04-02T16:10:50.472Z,101715.00
2023-04-02T16:12:22.207Z,101719.40
2023-04-02T16:14:17.897Z,101723.00
2023-04-02T16:16:03.477Z,101712.60
2023-04-02T16:17:43.836Z,101705.00
2023-04-02T16:19:40.052Z,101712.60
2023-04-02T16:21:22.262Z,101722.00
2023-04-02T16:23:07.137Z,101747.40
2023-04-02T16:24:38.960Z,101745.80
2023-04-02T16:26:27.045Z,101749.60
2023-04-02T16:28:13.685Z,101746.80
2023-04-02T16:30:01.098Z,101752.00
2023-04-02T16:32:11.560Z,101728.20
2023-04-02T16:34:11.535Z,101735.80
2023-04-02T16:35:53.278Z,101754.00
2023-04-02T16:38:01.995Z,101749.80
2023-04-02T16:40:06.904Z,101766.40
2023-04-02T16:41:54.263Z,101762.80
2023-04-02T16:43:59.559Z,101760.60
2023-04-02T16:46:08.420Z,101769.60
2023-04-02T16:48:29.476Z,101763.60
2023-04-02T16:50:25.887Z,101758.80
2023-04-02T16:52:16.116Z,101770.00
2023-04-02T16:54:16.430Z,101775.00
2023-04-02T16:56:56.106Z,101773.60
2023-04-02T16:58:52.570Z,101776.60
2023-04-02T17:00:34.059Z,101786.20
2023-04-02T17:02:36.520Z,101789.40
2023-04-02T17:04:46.580Z,101797.80
2023-04-02T17:06:56.521Z,101797.40
2023-04-02T17:08:52.193Z,101802.00
2023-04-02T17:10:57.435Z,101805.80
2023-04-02T17:13:00.229Z,101817.20
2023-04-02T17:14:47.150Z,101815.00
2023-04-02T17:16:41.600Z,101816.40
2023-04-02T17:18:26.580Z,101820.40
2023-04-02T17:20:01.015Z,101818.40
2023-04-02T17:21:33.833Z,101823.20
2023-04-02T17:23:06.427Z,101823.40
2023-04-02T17:24:53.811Z,101823.80
2023-04-02T17:26:30.250Z,101822.00
2023-04-02T17:28:03.975Z,101824.20
2023-04-02T17:29:43.364Z,101827.20
2023-04-02T17:31:23.233Z,101830.60
2023-04-02T17:32:55.049Z,101829.60
2023-04-02T17:34:27.881Z,101836.60
2023-04-02T17:35:59.888Z,101838.00
2023-04-02T17:37:52.371Z,101839.20
2023-04-02T17:39:57.874Z,101840.80
2023-04-02T17:41:48.178Z,101846.80
2023-04-02T17:43:53.734Z,101841.00
2023-04-02T17:46:26.004Z,101839.00
2023-04-02T17:48:03.187Z,101848.80
2023-04-02T17:49:57.588Z,101849.20
2023-04-02T17:52:03.240Z,101847.40
2023-04-02T17:53:48.468Z,101851.20
2023-04-02T17:55:41.847Z,101851.80
2023-04-02T17:57:44.642Z,101857.20
2023-04-02T17:59:37.410Z,101858.80
2023-04-02T18:01:33.556Z,101857.00
2023-04-02T18:04:01.666Z,101864.40
2023-04-02T18:05:44.592Z,101867.60
2023-04-02T18:07:44.227Z,101870.00
2023-04-02T18:09:54.561Z,101880.60
2023-04-02T18:11:56.090Z,101881.60
2023-04-02T18:13:57.591Z,101877.60
2023-04-02T18:15:44.910Z,101880.60
2023-04-02T18:17:53.536Z,101881.40
2023-04-02T18:19:58.202Z,101886.20
2023-04-02T18:22:00.723Z,101889.80
2023-04-02T18:23:35.646Z,101896.80
2023-04-02T18:25:42.775Z,101897.60
2023-04-02T18:27:48.172Z,101906.80
2023-04-02T18:29:38.999Z,101904.40
2023-04-02T18:32:08.334Z,101904.40
2023-04-02T18:34:00.456Z,101901.40
2023-04-02T18:35:43.476Z,101906.60
2023-04-02T18:37:45.855Z,101906.80
2023-04-02T18:39:46.081Z,101905.20
2023-04-02T18:41:49.843Z,101903.60
2023-04-02T18:44:03.178Z,101908.40
2023-04-02T18:45:59.109Z,101912.00
2023-04-02T18:47:59.473Z,101914.40
2023-04-02T18:49:49.951Z,101918.20
2023-04-02T18:51:26.276Z,101920.20
2023-04-02T18:52:58.233Z,101919.80
2023-04-02T18:54:39.657Z,101923.80
2023-04-02T18:56:19.083Z,101924.40
2023-04-02T18:58:00.029Z,101928.20
2023-04-02T19:00:02.648Z,101927.40
2023-04-02T19:03:31.584Z,101929.80
2023-04-02T19:05:16.795Z,101939.60
2023-04-02T19:06:56.429Z,101942.80
2023-04-02T19:08:41.618Z,101938.20
2023-04-02T19:10:42.425Z,101938.60
2023-04-02T19:12:22.114Z,101944.00
2023-04-02T19:13:54.987Z,101943.20
2023-04-02T19:15:54.266Z,101945.80
2023-04-02T19:17:45.910Z,101947.40
2023-04-02T19:19:38.178Z,101949.00
2023-04-02T19:21:26.585Z,101951.80
2023-04-02T19:23:48.410Z,101956.20
2023-04-02T19:25:52.336Z,101954.20
2023-04-02T19:28:07.290Z,101957.80
2023-04-02T19:30:03.385Z,101957.60
2023-04-02T19:31:46.602Z,101956.60
2023-04-02T19:33:33.817Z,101958.20
2023-04-02T19:35:39.846Z,101960.00
2023-04-02T19:37:29.532Z,101960.20
2023-04-02T19:39:04.295Z,101961.40
2023-04-02T19:40:59.754Z,101967.20
2023-04-02T19:42:49.069Z,101964.60
2023-04-02T19:44:21.979Z,101963.60
2023-04-02T19:45:54.723Z,101968.60
2023-04-02T19:47:26.598Z,101967.80
2023-04-02T19:49:22.958Z,101973.00
2023-04-02T19:50:55.019Z,101973.60
2023-04-02T19:52:26.920Z,101976.20
2023-04-02T19:53:59.861Z,101982.40
2023-04-02T19:55:31.767Z,101976.40
2023-04-02T19:57:05.336Z,101984.60
2023-04-02T19:58:37.307Z,101983.80
2023-04-02T20:00:14.717Z,101982.00
2023-04-02T20:01:47.461Z,101986.00
2023-04-02T20:03:19.460Z,101988.20
2023-04-02T20:04:51.253Z,101990.20
2023-04-02T20:06:23.778Z,101994.60
2023-04-02T20:07:55.495Z,101998.00
2023-04-02T20:09:27.193Z,101999.60
2023-04-02T20:11:00.199Z,102000.80
2023-04-02T20:12:32.047Z,101995.80
2023-04-02T20:14:05.225Z,101995.80
2023-04-02T20:15:39.488Z,101992.00
2023-04-02T20:17:11.705Z,101998.40